Time;durP1;ratioP1;P1;durP2;ratioP2;P2;SDS_P1;SDS_P2;PMS_P1;PMS_P2;Temp;Humidity;BMP_temperature;BMP_pressure;BME280_temperature;BME280_humidity;BME280_pressure;Samples;Min_cycle;Max_cycle;Signal;HPM_P1;HPM_P2
2023/06/15 05:09:32;;;;;;;;;;;;;;;;;;5072096;28;19999;-48
2023/06/15 05:11:58;;;;;;;;;;;;;;;;;;5069849;28;20007;-48
2023/06/15 05:14:26;;;;;;;;;;;;;;;;;;5070574;28;20320;-46
2023/06/15 05:16:52;;;;;;;;;;;;;;;;;;5086364;28;20327;-48
2023/06/15 05:19:18;;;;;;;;;;;;;;;;;;5088007;28;19963;-48
2023/06/15 05:21:44;;;;;;;;;;;;;;;;;;5089720;28;19978;-50
2023/06/15 05:24:10;;;;;;;;;;;;;;;;;;5090747;28;19919;-47
2023/06/15 05:26:36;;;;;;;;;;;;;;;;;;5090351;28;19954;-47
2023/06/15 05:29:02;;;;;;;;;;;;;;;;;;5090419;28;19908;-48
2023/06/15 05:31:28;;;;;;;;;;;;;;;;;;5090510;28;19955;-47
2023/06/15 05:33:54;;;;;;;;;;;;;;;;;;5090015;28;20388;-47
2023/06/15 05:36:20;;;;;;;;;;;;;;;;;;5089175;28;19955;-48
2023/06/15 05:38:47;;;;;;;;;;;;;;;;;;5090207;28;19947;-48
2023/06/15 05:41:13;;;;;;;;;;;;;;;;;;5090334;28;19911;-48
2023/06/15 05:43:38;;;;;;;;;;;;;;;;;;5088878;28;19920;-49
2023/06/15 05:46:05;;;;;;;;;;;;;;;;;;5090115;28;20447;-47
2023/06/15 05:48:30;;;;;;;;;;;;;;;;;;5089987;28;19915;-47
2023/06/15 05:50:56;;;;;;;;;;;;;;;;;;5088650;28;19912;-48
2023/06/15 05:53:22;;;;;;;;;;;;;;;;;;5088943;28;19920;-47
2023/06/15 05:55:48;;;;;;;;;;;;;;;;;;5088680;28;19924;-47
2023/06/15 05:58:14;;;;;;;;;;;;;;;;;;5088526;28;20392;-49
2023/06/15 06:00:40;;;;;;;;;;;;;;;;;;5090527;28;19919;-48
2023/06/15 06:03:06;;;;;;;;;;;;;;;;;;5090900;28;19919;-49
2023/06/15 06:05:32;;;;;;;;;;;;;;;;;;5086407;28;19912;-46
2023/06/15 06:07:58;;;;;;;;;;;;;;;;;;5089294;28;19916;-50
2023/06/15 06:10:24;;;;;;;;;;;;;;;;;;5091089;28;20025;-48
2023/06/15 06:12:50;;;;;;;;;;;;;;;;;;5090925;28;20389;-46
2023/06/15 06:15:16;;;;;;;;;;;;;;;;;;5089558;28;19995;-49
2023/06/15 06:17:43;;;;;;;;;;;;;;;;;;5090586;28;19934;-47
2023/06/15 06:20:09;;;;;;;;;;;;;;;;;;5089264;28;19920;-47
2023/06/15 06:22:35;;;;;;;;;;;;;;;;;;5089921;28;20010;-48
2023/06/15 06:25:01;;;;;;;;;;;;;;;;;;5091325;28;20376;-47
2023/06/15 06:27:27;;;;;;;;;;;;;;;;;;5091769;28;19918;-47
2023/06/15 06:29:53;;;;;;;;;;;;;;;;;;5091416;28;19916;-48
2023/06/15 06:32:19;;;;;;;;;;;;;;;;;;5091446;28;20019;-47
2023/06/15 06:34:45;;;;;;;;;;;;;;;;;;5091221;28;19927;-47
2023/06/15 06:37:11;;;;;;;;;;;;;;;;;;5090946;28;19908;-49
2023/06/15 06:39:37;;;;;;;;;;;;;;;;;;5090857;28;19908;-49
2023/06/15 06:42:03;;;;;;;;;;;;;;;;;;5091323;28;20055;-48
2023/06/15 06:44:29;;;;;;;;;;;;;;;;;;5090126;28;19957;-52
2023/06/15 06:46:56;;;;;;;;;;;;;;;;;;5085955;28;19916;-49
2023/06/15 06:49:22;;;;;;;;;;;;;;;;;;5090419;28;20031;-48
2023/06/15 06:51:48;;;;;;;;;;;;;;;;;;5090389;28;20432;-49
2023/06/15 06:54:14;;;;;;;;;;;;;;;;;;5075154;28;19978;-49
2023/06/15 06:56:39;;;;;;;;;;;;;;;;;;5090763;28;19908;-50
2023/06/15 06:59:05;;;;;;;;;;;;;;;;;;5086089;28;20006;-48
2023/06/15 07:01:31;;;;;;;;;;;;;;;;;;5090071;28;19931;-50
2023/06/15 07:03:57;;;;;;;;;;;;;;;;;;5090063;28;19917;-49
2023/06/15 07:06:23;;;;;;;;;;;;;;;;;;5080358;28;19916;-48
2023/06/15 07:08:49;;;;;;;;;;;;;;;;;;5086280;28;20429;-48
2023/06/15 07:11:15;;;;;;;;;;;;;;;;;;5085155;28;19916;-46
2023/06/15 07:13:41;;;;;;;;;;;;;;;;;;5090254;28;19908;-47
2023/06/15 07:16:07;;;;;;;;;;;;;;;;;;5089543;28;19918;-48
2023/06/15 07:18:33;;;;;;;;;;;;;;;;;;5088939;28;19920;-49
2023/06/15 07:21:00;;;;;;;;;;;;;;;;;;5089592;28;20053;-51
2023/06/15 07:23:26;;;;;;;;;;;;;;;;;;5089075;28;20028;-47
2023/06/15 07:25:52;;;;;;;;;;;;;;;;;;5088520;28;19983;-47
2023/06/15 07:28:18;;;;;;;;;;;;;;;;;;5088735;28;20391;-49
2023/06/15 07:30:44;;;;;;;;;;;;;;;;;;5089079;28;19916;-49
2023/06/15 07:33:10;;;;;;;;;;;;;;;;;;5082222;28;19912;-47
2023/06/15 07:35:36;;;;;;;;;;;;;;;;;;5076023;28;20447;-47
2023/06/15 07:38:02;;;;;;;;;;;;;;;;;;5087659;28;20146;-49
2023/06/15 07:40:28;;;;;;;;;;;;;;;;;;5085818;28;19912;-52
2023/06/15 07:42:54;;;;;;;;;;;;;;;;;;5088349;28;19916;-46
2023/06/15 07:45:20;;;;;;;;;;;;;;;;;;5087535;28;19924;-51
2023/06/15 07:47:45;;;;;;;;;;;;;;;;;;5087524;28;19916;-51
2023/06/15 07:50:11;;;;;;;;;;;;;;;;;;5088922;28;19916;-48
2023/06/15 07:52:37;;;;;;;;;;;;;;;;;;5087691;28;19908;-46
2023/06/15 07:55:03;;;;;;;;;;;;;;;;;;5086151;28;19923;-48
2023/06/15 07:57:29;;;;;;;;;;;;;;;;;;5088415;28;19922;-50
2023/06/15 07:59:55;;;;;;;;;;;;;;;;;;5088036;28;19958;-47
2023/06/15 08:02:21;;;;;;;;;;;;;;;;;;5086590;28;19912;-49
2023/06/15 08:04:47;;;;;;;;;;;;;;;;;;5086182;28;19935;-50
2023/06/15 08:07:13;;;;;;;;;;;;;;;;;;5077019;28;19916;-51
2023/06/15 08:09:40;;;;;;;;;;;;;;;;;;5071796;28;19927;-48
2023/06/15 08:12:06;;;;;;;;;;;;;;;;;;5079463;28;19916;-50
2023/06/15 08:14:32;;;;;;;;;;;;;;;;;;5089766;28;19908;-49
2023/06/15 08:16:58;;;;;;;;;;;;;;;;;;5088919;28;19912;-49
2023/06/15 08:19:27;;;;;;;;;;;;;;;;;;5086961;28;20310;-50
2023/06/15 08:21:52;;;;;;;;;;;;;;;;;;5088125;28;20372;-48
2023/06/15 08:24:19;;;;;;;;;;;;;;;;;;5088176;28;19920;-51
2023/06/15 08:26:48;;;;;;;;;;;;;;;;;;5088200;28;19923;-52
2023/06/15 08:29:14;;;;;;;;;;;;;;;;;;5088101;28;20283;-49
2023/06/15 08:31:40;;;;;;;;;;;;;;;;;;5085758;28;19919;-51
2023/06/15 08:34:06;;;;;;;;;;;;;;;;;;5087102;28;19920;-52
2023/06/15 08:36:33;;;;;;;;;;;;;;;;;;5086967;28;19965;-48
2023/06/15 08:38:59;;;;;;;;;;;;;;;;;;5086069;28;19926;-47
2023/06/15 08:41:25;;;;;;;;;;;;;;;;;;5088295;28;19912;-52
2023/06/15 08:43:51;;;;;;;;;;;;;;;;;;5088004;28;20007;-48
2023/06/15 08:46:18;;;;;;;;;;;;;;;;;;5087121;28;19923;-48
2023/06/15 08:48:44;;;;;;;;;;;;;;;;;;5088161;28;19958;-49
2023/06/15 08:51:12;;;;;;;;;;;;;;;;;;5087228;28;20372;-49
2023/06/15 08:53:38;;;;;;;;;;;;;;;;;;5086877;28;19912;-49
2023/06/15 08:56:04;;;;;;;;;;;;;;;;;;5087861;28;19961;-49
2023/06/15 08:58:30;;;;;;;;;;;;;;;;;;5087916;28;19916;-50
2023/06/15 09:00:57;;;;;;;;;;;;;;;;;;5088551;28;19912;-52
2023/06/15 09:03:23;;;;;;;;;;;;;;;;;;5088453;28;19995;-51
2023/06/15 09:05:49;;;;;;;;;;;;;;;;;;5087781;28;20011;-52
2023/06/15 09:08:15;;;;;;;;;;;;;;;;;;5087234;28;20337;-48
2023/06/15 09:10:41;;;;;;;;;;;;;;;;;;5090379;28;19999;-51
2023/06/15 09:13:07;;;;;;;;;;;;;;;;;;5088461;28;19916;-49
2023/06/15 09:15:33;;;;;;;;;;;;;;;;;;5090615;28;20337;-53
2023/06/15 09:17:59;;;;;;;;;;;;;;;;;;5087100;28;19919;-48
2023/06/15 09:20:25;;;;;;;;;;;;;;;;;;5091870;28;20296;-49
2023/06/15 09:22:51;;;;;;;;;;;;;;;;;;5090559;28;19955;-50
2023/06/15 09:25:17;;;;;;;;;;;;;;;;;;5090662;28;20376;-52
2023/06/15 09:27:43;;;;;;;;;;;;;;;;;;5090327;28;19916;-51
2023/06/15 09:30:12;;;;;;;;;;;;;;;;;;5091333;28;20402;-51
2023/06/15 09:32:39;;;;;;;;;;;;;;;;;;5089944;28;20414;-49
2023/06/15 09:35:08;;;;;;;;;;;;;;;;;;5091414;28;20344;-50
2023/06/15 09:37:34;;;;;;;;;;;;;;;;;;5091301;28;19912;-48
2023/06/15 09:40:00;;;;;;;;;;;;;;;;;;5090107;28;19944;-51
2023/06/15 09:42:26;;;;;;;;;;;;;;;;;;5090929;28;19947;-52
2023/06/15 09:44:52;;;;;;;;;;;;;;;;;;5091328;28;19930;-49
2023/06/15 09:47:18;;;;;;;;;;;;;;;;;;5090509;28;19975;-52
2023/06/15 09:49:47;;;;;;;;;;;;;;;;;;5090751;28;19924;-52
2023/06/15 09:52:13;;;;;;;;;;;;;;;;;;5092263;28;19908;-50
2023/06/15 09:54:39;;;;;;;;;;;;;;;;;;5091572;28;19916;-52
2023/06/15 09:57:05;;;;;;;;;;;;;;;;;;5090823;28;19924;-51
2023/06/15 09:59:30;;;;;;;;;;;;;;;;;;5092012;28;19912;-49
2023/06/15 10:01:56;;;;;;;;;;;;;;;;;;5092469;28;19908;-52
2023/06/15 10:04:22;;;;;;;;;;;;;;;;;;5091289;28;19908;-51
2023/06/15 10:06:50;;;;;;;;;;;;;;;;;;5089121;28;19924;-50
2023/06/15 10:09:17;;;;;;;;;;;;;;;;;;5090348;28;19915;-51
2023/06/15 10:11:43;;;;;;;;;;;;;;;;;;5088919;28;20555;-50
2023/06/15 10:14:09;;;;;;;;;;;;;;;;;;5086026;28;20003;-48
2023/06/15 10:16:35;;;;;;;;;;;;;;;;;;5090446;28;19916;-49
2023/06/15 10:19:01;;;;;;;;;;;;;;;;;;5090587;28;19916;-52
2023/06/15 10:21:27;;;;;;;;;;;;;;;;;;5090525;28;19965;-51
2023/06/15 10:23:53;;;;;;;;;;;;;;;;;;5089715;28;20289;-52
2023/06/15 10:26:20;;;;;;;;;;;;;;;;;;5090099;28;20458;-52
2023/06/15 10:28:46;;;;;;;;;;;;;;;;;;5089145;28;19916;-52
2023/06/15 10:31:12;;;;;;;;;;;;;;;;;;5089870;28;19986;-50
2023/06/15 10:33:39;;;;;;;;;;;;;;;;;;5091204;28;19916;-51
2023/06/15 10:36:05;;;;;;;;;;;;;;;;;;5090349;28;19961;-52
2023/06/15 10:38:31;;;;;;;;;;;;;;;;;;5089538;28;20001;-52
2023/06/15 10:40:57;;;;;;;;;;;;;;;;;;5091489;28;20403;-52
2023/06/15 10:43:23;;;;;;;;;;;;;;;;;;5091572;28;19908;-51
2023/06/15 10:45:49;;;;;;;;;;;;;;;;;;5090279;28;20042;-53
2023/06/15 10:48:15;;;;;;;;;;;;;;;;;;5090896;28;19923;-49
2023/06/15 10:50:41;;;;;;;;;;;;;;;;;;5090242;28;19912;-51
2023/06/15 10:53:07;;;;;;;;;;;;;;;;;;5091091;28;19930;-50
2023/06/15 10:55:33;;;;;;;;;;;;;;;;;;5088954;28;19911;-52
2023/06/15 10:57:59;;;;;;;;;;;;;;;;;;5089996;28;19916;-52
2023/06/15 11:00:25;;;;;;;;;;;;;;;;;;5089946;28;20299;-48
2023/06/15 11:02:58;;;;;;;;;;;;;;;;;;5090319;28;19923;-52
2023/06/15 11:05:24;;;;;;;;;;;;;;;;;;5090444;28;20439;-51
2023/06/15 11:07:51;;;;;;;;;;;;;;;;;;5087479;28;19920;-52
2023/06/15 11:10:17;;;;;;;;;;;;;;;;;;5086961;28;19919;-50
2023/06/15 11:12:43;;;;;;;;;;;;;;;;;;5089407;28;20368;-50
2023/06/15 11:15:09;;;;;;;;;;;;;;;;;;5088549;28;19916;-52
2023/06/15 11:17:35;;;;;;;;;;;;;;;;;;5087498;28;19927;-49
2023/06/15 11:20:07;;;;;;;;;;;;;;;;;;5088448;28;19920;-51
2023/06/15 11:22:35;;;;;;;;;;;;;;;;;;5090157;28;19919;-48
2023/06/15 11:25:03;;;;;;;;;;;;;;;;;;5089257;28;19999;-50
2023/06/15 11:27:29;;;;;;;;;;;;;;;;;;5088862;28;19920;-50
2023/06/15 11:29:55;;;;;;;;;;;;;;;;;;5090052;28;19908;-51
2023/06/15 11:32:21;;;;;;;;;;;;;;;;;;5087527;28;20391;-53
2023/06/15 11:34:47;;;;;;;;;;;;;;;;;;5088926;28;19916;-47
2023/06/15 11:37:14;;;;;;;;;;;;;;;;;;5089494;28;19948;-50
2023/06/15 11:39:40;;;;;;;;;;;;;;;;;;5089359;28;20346;-49
2023/06/15 11:42:06;;;;;;;;;;;;;;;;;;5088811;28;20351;-49
2023/06/15 11:44:32;;;;;;;;;;;;;;;;;;5085002;28;19940;-53
2023/06/15 11:46:58;;;;;;;;;;;;;;;;;;5086043;28;19924;-49
2023/06/15 11:49:24;;;;;;;;;;;;;;;;;;5087541;28;19916;-50
2023/06/15 11:51:52;;;;;;;;;;;;;;;;;;5088621;28;19916;-51
2023/06/15 11:54:18;;;;;;;;;;;;;;;;;;5086621;28;19920;-50
2023/06/15 11:56:44;;;;;;;;;;;;;;;;;;5086617;28;19916;-52
2023/06/15 11:59:11;;;;;;;;;;;;;;;;;;5087550;28;19916;-51
2023/06/15 12:01:37;;;;;;;;;;;;;;;;;;5087525;28;19919;-53
2023/06/15 12:04:03;;;;;;;;;;;;;;;;;;5088305;28;19912;-51
2023/06/15 12:06:29;;;;;;;;;;;;;;;;;;5087911;28;19920;-51
2023/06/15 12:08:55;;;;;;;;;;;;;;;;;;5088176;28;19916;-52
2023/06/15 12:11:21;;;;;;;;;;;;;;;;;;5088509;28;19927;-52
2023/06/15 12:13:47;;;;;;;;;;;;;;;;;;5086440;28;19913;-51
2023/06/15 12:16:13;;;;;;;;;;;;;;;;;;5076131;28;19912;-51
2023/06/15 12:18:39;;;;;;;;;;;;;;;;;;5085315;28;19912;-51
2023/06/15 12:21:05;;;;;;;;;;;;;;;;;;5089245;28;20007;-52
2023/06/15 12:23:31;;;;;;;;;;;;;;;;;;5087495;28;19916;-51
2023/06/15 12:25:57;;;;;;;;;;;;;;;;;;5088792;28;19912;-50
2023/06/15 12:28:23;;;;;;;;;;;;;;;;;;5088750;28;19912;-50
2023/06/15 12:30:49;;;;;;;;;;;;;;;;;;5089646;28;19965;-48
2023/06/15 12:33:16;;;;;;;;;;;;;;;;;;5089552;28;19912;-50
2023/06/15 12:35:42;;;;;;;;;;;;;;;;;;5089790;28;19912;-50
2023/06/15 12:38:08;;;;;;;;;;;;;;;;;;5089375;28;19908;-51
2023/06/15 12:40:34;;;;;;;;;;;;;;;;;;5074943;28;20426;-51
2023/06/15 12:43:00;;;;;;;;;;;;;;;;;;5069903;28;19935;-49
2023/06/15 12:45:26;;;;;;;;;;;;;;;;;;5078126;28;20582;-49
2023/06/15 12:47:53;;;;;;;;;;;;;;;;;;5093659;28;19954;-51
2023/06/15 12:50:19;;;;;;;;;;;;;;;;;;5093317;28;19917;-48
2023/06/15 12:52:45;;;;;;;;;;;;;;;;;;5092801;28;19978;-48
2023/06/15 12:55:11;;;;;;;;;;;;;;;;;;5083860;28;19917;-52
2023/06/15 12:57:37;;;;;;;;;;;;;;;;;;5086836;28;20376;-50
2023/06/15 13:00:04;;;;;;;;;;;;;;;;;;5082000;28;19978;-51
2023/06/15 13:02:31;;;;;;;;;;;;;;;;;;5083926;28;19972;-52
2023/06/15 13:04:58;;;;;;;;;;;;;;;;;;5084998;28;19924;-51
2023/06/15 13:07:24;;;;;;;;;;;;;;;;;;5071885;28;19912;-52
2023/06/15 13:09:50;;;;;;;;;;;;;;;;;;5079002;28;19916;-52
2023/06/15 13:12:16;;;;;;;;;;;;;;;;;;5082812;28;19924;-48
2023/06/15 13:14:42;;;;;;;;;;;;;;;;;;5082416;28;19920;-52
2023/06/15 13:17:08;;;;;;;;;;;;;;;;;;5086794;28;20423;-49
2023/06/15 13:19:34;;;;;;;;;;;;;;;;;;5086053;28;19920;-50
2023/06/15 13:21:59;;;;;;;;;;;;;;;;;;5087943;28;20375;-50
2023/06/15 13:24:25;;;;;;;;;;;;;;;;;;5085194;28;19961;-53
2023/06/15 13:26:51;;;;;;;;;;;;;;;;;;5068767;28;19997;-53
2023/06/15 13:29:18;;;;;;;;;;;;;;;;;;5070640;28;19908;-49
2023/06/15 13:31:44;;;;;;;;;;;;;;;;;;5076892;28;19953;-52
2023/06/15 13:34:10;;;;;;;;;;;;;;;;;;5087197;28;20000;-51
2023/06/15 13:36:38;;;;;;;;;;;;;;;;;;5067995;28;20303;-53
2023/06/15 13:39:04;;;;;;;;;;;;;;;;;;5077425;28;19923;-53
2023/06/15 13:41:31;;;;;;;;;;;;;;;;;;5085887;28;19912;-51
2023/06/15 13:43:57;;;;;;;;;;;;;;;;;;5088500;28;19999;-53
2023/06/15 13:46:23;;;;;;;;;;;;;;;;;;5067808;28;19916;-50
2023/06/15 13:48:49;;;;;;;;;;;;;;;;;;5069450;28;19913;-51
2023/06/15 13:51:15;;;;;;;;;;;;;;;;;;5072228;28;19916;-51
2023/06/15 13:53:42;;;;;;;;;;;;;;;;;;5068802;28;19918;-50
2023/06/15 13:56:08;;;;;;;;;;;;;;;;;;5070629;28;19912;-52
2023/06/15 13:58:34;;;;;;;;;;;;;;;;;;5068471;28;20450;-51
2023/06/15 14:01:02;;;;;;;;;;;;;;;;;;5080147;28;20100;-50
2023/06/15 14:03:29;;;;;;;;;;;;;;;;;;5088832;28;19912;-49
2023/06/15 14:05:55;;;;;;;;;;;;;;;;;;5073532;28;20158;-53
2023/06/15 14:08:21;;;;;;;;;;;;;;;;;;5068540;28;20307;-51
2023/06/15 14:10:47;;;;;;;;;;;;;;;;;;5077542;28;20341;-51
2023/06/15 14:13:15;;;;;;;;;;;;;;;;;;5089240;28;19908;-55
2023/06/15 14:15:41;;;;;;;;;;;;;;;;;;5080440;28;20397;-51
2023/06/15 14:18:07;;;;;;;;;;;;;;;;;;5084754;28;19922;-51
2023/06/15 14:20:33;;;;;;;;;;;;;;;;;;5072610;28;19913;-52
2023/06/15 14:22:59;;;;;;;;;;;;;;;;;;5068330;28;19912;-53
2023/06/15 14:25:25;;;;;;;;;;;;;;;;;;5074462;28;19956;-49
2023/06/15 14:27:51;;;;;;;;;;;;;;;;;;5087499;28;19941;-50
2023/06/15 14:30:16;;;;;;;;;;;;;;;;;;5080466;28;19927;-50
2023/06/15 14:32:42;;;;;;;;;;;;;;;;;;5088223;28;20087;-49
2023/06/15 14:35:09;;;;;;;;;;;;;;;;;;5084021;28;19923;-52
2023/06/15 14:37:35;;;;;;;;;;;;;;;;;;5067598;28;19956;-50
2023/06/15 14:40:04;;;;;;;;;;;;;;;;;;5070370;28;19955;-50
2023/06/15 14:42:30;;;;;;;;;;;;;;;;;;5067500;28;19955;-50
2023/06/15 14:44:57;;;;;;;;;;;;;;;;;;5070354;28;20396;-49
2023/06/15 14:47:23;;;;;;;;;;;;;;;;;;5067186;28;19916;-52
2023/06/15 14:49:50;;;;;;;;;;;;;;;;;;5073700;28;20384;-50
2023/06/15 14:52:15;;;;;;;;;;;;;;;;;;5067748;28;19912;-54
2023/06/15 14:54:41;;;;;;;;;;;;;;;;;;5068557;28;19916;-50
2023/06/15 14:57:07;;;;;;;;;;;;;;;;;;5085549;28;20404;-50
2023/06/15 14:59:33;;;;;;;;;;;;;;;;;;5086542;28;20011;-51
2023/06/15 15:01:59;;;;;;;;;;;;;;;;;;5069301;28;19982;-48
2023/06/15 15:04:26;;;;;;;;;;;;;;;;;;5078423;28;20368;-49
2023/06/15 15:06:52;;;;;;;;;;;;;;;;;;5078622;28;20411;-48
2023/06/15 15:09:18;;;;;;;;;;;;;;;;;;5087046;28;19916;-53
2023/06/15 15:11:44;;;;;;;;;;;;;;;;;;5067819;28;19916;-52
2023/06/15 15:14:10;;;;;;;;;;;;;;;;;;5067576;28;20010;-53
2023/06/15 15:16:35;;;;;;;;;;;;;;;;;;5075907;28;19963;-51
2023/06/15 15:19:02;;;;;;;;;;;;;;;;;;5070920;28;19923;-50
2023/06/15 15:21:29;;;;;;;;;;;;;;;;;;5067882;28;20335;-52
2023/06/15 15:23:55;;;;;;;;;;;;;;;;;;5067977;28;20312;-50
2023/06/15 15:26:21;;;;;;;;;;;;;;;;;;5067178;28;19912;-53
2023/06/15 15:28:48;;;;;;;;;;;;;;;;;;5086679;28;20623;-52
2023/06/15 15:31:15;;;;;;;;;;;;;;;;;;5087165;28;19912;-50
2023/06/15 15:33:40;;;;;;;;;;;;;;;;;;5087302;28;19915;-53
2023/06/15 15:36:06;;;;;;;;;;;;;;;;;;5087051;28;19916;-53
2023/06/15 15:38:33;;;;;;;;;;;;;;;;;;5088039;28;20565;-49
2023/06/15 15:40:59;;;;;;;;;;;;;;;;;;5086728;28;19921;-53
2023/06/15 15:43:25;;;;;;;;;;;;;;;;;;5086104;28;20296;-51
2023/06/15 15:45:50;;;;;;;;;;;;;;;;;;5087012;28;20006;-51
2023/06/15 15:48:16;;;;;;;;;;;;;;;;;;5086102;28;19969;-48
2023/06/15 15:50:42;;;;;;;;;;;;;;;;;;5086305;28;19977;-52
2023/06/15 15:53:08;;;;;;;;;;;;;;;;;;5086075;28;19966;-52
2023/06/15 15:55:34;;;;;;;;;;;;;;;;;;5085863;28;20406;-51
2023/06/15 15:58:00;;;;;;;;;;;;;;;;;;5085999;28;19969;-50
2023/06/15 16:00:27;;;;;;;;;;;;;;;;;;5087152;28;19908;-48
2023/06/15 16:02:53;;;;;;;;;;;;;;;;;;5084813;28;20193;-50
2023/06/15 16:05:20;;;;;;;;;;;;;;;;;;5085747;28;20392;-49
2023/06/15 16:07:46;;;;;;;;;;;;;;;;;;5085898;28;19923;-51
2023/06/15 16:10:12;;;;;;;;;;;;;;;;;;5086732;28;19908;-49
2023/06/15 16:12:39;;;;;;;;;;;;;;;;;;5086926;28;19974;-50
2023/06/15 16:15:05;;;;;;;;;;;;;;;;;;5085717;28;19916;-51
2023/06/15 16:17:31;;;;;;;;;;;;;;;;;;5086401;28;20003;-50
2023/06/15 16:19:57;;;;;;;;;;;;;;;;;;5084983;28;19919;-49
2023/06/15 16:22:24;;;;;;;;;;;;;;;;;;5086784;28;19939;-52
2023/06/15 16:24:50;;;;;;;;;;;;;;;;;;5085529;28;19916;-52
2023/06/15 16:27:16;;;;;;;;;;;;;;;;;;5083229;28;19926;-50
2023/06/15 16:29:41;;;;;;;;;;;;;;;;;;5086100;28;19908;-49
2023/06/15 16:32:07;;;;;;;;;;;;;;;;;;5086499;28;19916;-52
2023/06/15 16:34:33;;;;;;;;;;;;;;;;;;5085526;28;20019;-48
2023/06/15 16:37:00;;;;;;;;;;;;;;;;;;5086075;28;19908;-49
2023/06/15 16:39:26;;;;;;;;;;;;;;;;;;5086075;28;19916;-50
2023/06/15 16:41:52;;;;;;;;;;;;;;;;;;5086603;28;19915;-53
2023/06/15 16:44:18;;;;;;;;;;;;;;;;;;5085318;28;19927;-51
2023/06/15 16:46:47;;;;;;;;;;;;;;;;;;5085513;28;20303;-49
2023/06/15 16:49:13;;;;;;;;;;;;;;;;;;5084800;28;20402;-49
2023/06/15 16:51:38;;;;;;;;;;;;;;;;;;5084806;28;19920;-49
2023/06/15 16:54:04;;;;;;;;;;;;;;;;;;5087043;28;19974;-51
2023/06/15 16:56:30;;;;;;;;;;;;;;;;;;5083814;28;19912;-53
2023/06/15 16:58:56;;;;;;;;;;;;;;;;;;5086213;28;19912;-49
2023/06/15 17:01:22;;;;;;;;;;;;;;;;;;5089272;28;19935;-49
2023/06/15 17:03:48;;;;;;;;;;;;;;;;;;5081087;28;19924;-49
2023/06/15 17:06:14;;;;;;;;;;;;;;;;;;5079716;28;20049;-53
2023/06/15 17:08:41;;;;;;;;;;;;;;;;;;5080622;28;20814;-51
2023/06/15 17:11:07;;;;;;;;;;;;;;;;;;5075119;28;19916;-52
2023/06/15 17:13:36;;;;;;;;;;;;;;;;;;5081472;28;20396;-51
2023/06/15 17:16:01;;;;;;;;;;;;;;;;;;5083038;28;19972;-49
2023/06/15 17:18:27;;;;;;;;;;;;;;;;;;5086135;28;20414;-49
2023/06/15 17:20:54;;;;;;;;;;;;;;;;;;5084065;28;19913;-49
2023/06/15 17:23:20;;;;;;;;;;;;;;;;;;5083202;28;19958;-52
2023/06/15 17:25:47;;;;;;;;;;;;;;;;;;5082048;28;19955;-52
2023/06/15 17:28:13;;;;;;;;;;;;;;;;;;5082881;28;19920;-49
2023/06/15 17:30:40;;;;;;;;;;;;;;;;;;5085133;28;19920;-52
2023/06/15 17:33:06;;;;;;;;;;;;;;;;;;5077789;28;20352;-52
2023/06/15 17:35:32;;;;;;;;;;;;;;;;;;5084774;28;19958;-50
2023/06/15 17:37:58;;;;;;;;;;;;;;;;;;5085524;28;19923;-53
2023/06/15 17:40:28;;;;;;;;;;;;;;;;;;5074098;28;20370;-53
2023/06/15 17:42:54;;;;;;;;;;;;;;;;;;5082045;28;20664;-53
2023/06/15 17:45:20;;;;;;;;;;;;;;;;;;5079373;28;20095;-53
2023/06/15 17:47:46;;;;;;;;;;;;;;;;;;5085768;28;19920;-52
2023/06/15 17:50:13;;;;;;;;;;;;;;;;;;5082364;28;19912;-49
2023/06/15 17:52:39;;;;;;;;;;;;;;;;;;5085464;28;20439;-51
2023/06/15 17:55:04;;;;;;;;;;;;;;;;;;5082827;28;19963;-48
2023/06/15 17:57:30;;;;;;;;;;;;;;;;;;5085403;28;20340;-52
2023/06/15 17:59:57;;;;;;;;;;;;;;;;;;5085463;28;19916;-50
2023/06/15 18:02:23;;;;;;;;;;;;;;;;;;5082644;28;20378;-51
2023/06/15 18:04:50;;;;;;;;;;;;;;;;;;5082190;28;20294;-52
2023/06/15 18:07:16;;;;;;;;;;;;;;;;;;5077852;28;19960;-52
2023/06/15 18:09:42;;;;;;;;;;;;;;;;;;5077708;28;19955;-51
2023/06/15 18:12:11;;;;;;;;;;;;;;;;;;5082520;28;19960;-53
2023/06/15 18:14:37;;;;;;;;;;;;;;;;;;5078844;28;19964;-52
2023/06/15 18:17:04;;;;;;;;;;;;;;;;;;5084072;28;20007;-52
2023/06/15 18:19:30;;;;;;;;;;;;;;;;;;5078452;28;19939;-51
2023/06/15 18:21:56;;;;;;;;;;;;;;;;;;5081418;28;20015;-52
2023/06/15 18:24:24;;;;;;;;;;;;;;;;;;5081158;28;20003;-52
2023/06/15 18:26:49;;;;;;;;;;;;;;;;;;5074539;28;20037;-50
2023/06/15 18:29:15;;;;;;;;;;;;;;;;;;5080928;28;19916;-53
2023/06/15 18:31:41;;;;;;;;;;;;;;;;;;5080878;28;20050;-50
2023/06/15 18:34:08;;;;;;;;;;;;;;;;;;5077557;28;19917;-52
2023/06/15 18:36:34;;;;;;;;;;;;;;;;;;5083504;28;20293;-51
2023/06/15 18:39:00;;;;;;;;;;;;;;;;;;5083033;28;19912;-51
2023/06/15 18:41:27;;;;;;;;;;;;;;;;;;5083635;28;19916;-50
2023/06/15 18:43:53;;;;;;;;;;;;;;;;;;5072332;28;19935;-50
2023/06/15 18:46:21;;;;;;;;;;;;;;;;;;5085757;28;20407;-50
2023/06/15 18:48:47;;;;;;;;;;;;;;;;;;5084687;28;20316;-51
2023/06/15 18:51:13;;;;;;;;;;;;;;;;;;5081240;28;19919;-52
2023/06/15 18:53:38;;;;;;;;;;;;;;;;;;5084637;28;19920;-48
2023/06/15 18:56:04;;;;;;;;;;;;;;;;;;5083499;28;19916;-52
2023/06/15 18:58:30;;;;;;;;;;;;;;;;;;5084484;28;19939;-50
2023/06/15 19:00:56;;;;;;;;;;;;;;;;;;5085778;28;20207;-50
2023/06/15 19:03:22;;;;;;;;;;;;;;;;;;5082834;28;19994;-52
2023/06/15 19:05:51;;;;;;;;;;;;;;;;;;5081485;28;19912;-49
2023/06/15 19:08:18;;;;;;;;;;;;;;;;;;5084842;28;19916;-53
2023/06/15 19:10:44;;;;;;;;;;;;;;;;;;5081359;28;19916;-51
2023/06/15 19:13:10;;;;;;;;;;;;;;;;;;5084131;28;19923;-50
2023/06/15 19:15:36;;;;;;;;;;;;;;;;;;5068580;28;19961;-49
2023/06/15 19:18:02;;;;;;;;;;;;;;;;;;5083683;28;20319;-50
2023/06/15 19:20:28;;;;;;;;;;;;;;;;;;5080495;28;19916;-52
2023/06/15 19:22:53;;;;;;;;;;;;;;;;;;5084613;28;19916;-50
2023/06/15 19:25:20;;;;;;;;;;;;;;;;;;5082196;28;19969;-51
2023/06/15 19:27:47;;;;;;;;;;;;;;;;;;5081695;28;20400;-48
2023/06/15 19:30:14;;;;;;;;;;;;;;;;;;5082974;28;20108;-50
2023/06/15 19:32:40;;;;;;;;;;;;;;;;;;5081519;28;20628;-49
2023/06/15 19:35:06;;;;;;;;;;;;;;;;;;5084474;28;19938;-51
2023/06/15 19:37:32;;;;;;;;;;;;;;;;;;5083942;28;20030;-49
2023/06/15 19:39:58;;;;;;;;;;;;;;;;;;5081863;28;19991;-52
2023/06/15 19:42:24;;;;;;;;;;;;;;;;;;5084814;28;19912;-49
2023/06/15 19:44:50;;;;;;;;;;;;;;;;;;5083148;28;19999;-52
2023/06/15 19:47:16;;;;;;;;;;;;;;;;;;5078993;28;20011;-52
2023/06/15 19:49:43;;;;;;;;;;;;;;;;;;5077333;28;20372;-53
2023/06/15 19:52:09;;;;;;;;;;;;;;;;;;5083082;28;19923;-49
2023/06/15 19:54:35;;;;;;;;;;;;;;;;;;5081208;28;19916;-50
2023/06/15 19:57:01;;;;;;;;;;;;;;;;;;5082825;28;19916;-48
2023/06/15 19:59:27;;;;;;;;;;;;;;;;;;5083550;28;19913;-49
2023/06/15 20:01:53;;;;;;;;;;;;;;;;;;5080336;28;20018;-51
2023/06/15 20:04:20;;;;;;;;;;;;;;;;;;5081733;28;20309;-49
2023/06/15 20:06:46;;;;;;;;;;;;;;;;;;5084188;28;19956;-51
2023/06/15 20:09:13;;;;;;;;;;;;;;;;;;5079402;28;19920;-49
2023/06/15 20:11:39;;;;;;;;;;;;;;;;;;5081316;28;19927;-50
2023/06/15 20:14:04;;;;;;;;;;;;;;;;;;5076940;28;19916;-48
2023/06/15 20:16:33;;;;;;;;;;;;;;;;;;5081707;28;20583;-52
2023/06/15 20:18:59;;;;;;;;;;;;;;;;;;5081857;28;19943;-51
2023/06/15 20:21:27;;;;;;;;;;;;;;;;;;5081803;28;19969;-49
2023/06/15 20:23:53;;;;;;;;;;;;;;;;;;5082692;28;19912;-49
2023/06/15 20:26:19;;;;;;;;;;;;;;;;;;5081414;28;19927;-49
2023/06/15 20:28:45;;;;;;;;;;;;;;;;;;5079644;28;20418;-48
2023/06/15 20:31:11;;;;;;;;;;;;;;;;;;5082636;28;20632;-49
2023/06/15 20:33:37;;;;;;;;;;;;;;;;;;5080968;28;19916;-51
2023/06/15 20:36:03;;;;;;;;;;;;;;;;;;5078466;28;19912;-49
2023/06/15 20:38:33;;;;;;;;;;;;;;;;;;5080395;28;19931;-50
2023/06/15 20:41:00;;;;;;;;;;;;;;;;;;5082367;28;19938;-49
2023/06/15 20:43:27;;;;;;;;;;;;;;;;;;5081831;28;19916;-53
2023/06/15 20:45:53;;;;;;;;;;;;;;;;;;5083051;28;19909;-52
2023/06/15 20:48:19;;;;;;;;;;;;;;;;;;5084146;28;20292;-50
2023/06/15 20:50:45;;;;;;;;;;;;;;;;;;5082295;28;19916;-52
2023/06/15 20:53:11;;;;;;;;;;;;;;;;;;5083356;28;19919;-50
2023/06/15 20:55:37;;;;;;;;;;;;;;;;;;5084842;28;20004;-52
2023/06/15 20:58:02;;;;;;;;;;;;;;;;;;5083433;28;19920;-49
2023/06/15 21:00:29;;;;;;;;;;;;;;;;;;5083090;28;19916;-53
2023/06/15 21:02:56;;;;;;;;;;;;;;;;;;5084478;28;19935;-51
2023/06/15 21:05:21;;;;;;;;;;;;;;;;;;5083379;28;20300;-50
2023/06/15 21:07:47;;;;;;;;;;;;;;;;;;5088093;28;19918;-52
2023/06/15 21:10:13;;;;;;;;;;;;;;;;;;5087174;28;19965;-50
2023/06/15 21:12:39;;;;;;;;;;;;;;;;;;5088564;28;20446;-50
2023/06/15 21:15:05;;;;;;;;;;;;;;;;;;5087992;28;19962;-52
2023/06/15 21:17:32;;;;;;;;;;;;;;;;;;5087539;28;19912;-52
2023/06/15 21:19:59;;;;;;;;;;;;;;;;;;5085833;28;20446;-52
2023/06/15 21:22:26;;;;;;;;;;;;;;;;;;5067078;28;19947;-49
2023/06/15 21:24:53;;;;;;;;;;;;;;;;;;5067651;28;19999;-52
2023/06/15 21:27:19;;;;;;;;;;;;;;;;;;5067106;28;19916;-51
2023/06/15 21:29:44;;;;;;;;;;;;;;;;;;5067446;28;19913;-52
2023/06/15 21:32:11;;;;;;;;;;;;;;;;;;5067991;28;20384;-49
2023/06/15 21:34:37;;;;;;;;;;;;;;;;;;5069534;28;20380;-52
2023/06/15 21:37:05;;;;;;;;;;;;;;;;;;5087446;28;20003;-50
2023/06/15 21:39:31;;;;;;;;;;;;;;;;;;5086975;28;19947;-49
2023/06/15 21:41:57;;;;;;;;;;;;;;;;;;5087461;28;19999;-52
2023/06/15 21:44:23;;;;;;;;;;;;;;;;;;5086952;28;20019;-48
2023/06/15 21:46:49;;;;;;;;;;;;;;;;;;5087186;28;20434;-52